Time;durP1;ratioP1;P1;durP2;ratioP2;P2;SDS_P1;SDS_P2;PMS_P1;PMS_P2;Temp;Humidity;BMP_temperature;BMP_pressure;BME280_temperature;BME280_humidity;BME280_pressure;Samples;Min_cycle;Max_cycle;Signal;HPM_P1;HPM_P2
2023/04/20 04:30:49;;;;;;;11.07;5.63;;;13.00;57.40;;;;;;5712684;23;20418;-76
2023/04/20 04:33:17;;;;;;;11.23;6.93;;;12.90;57.40;;;;;;4935117;29;20185;-77
2023/04/20 04:35:44;;;;;;;11.73;6.50;;;12.80;57.50;;;;;;4957002;29;20031;-77
2023/04/20 04:38:11;;;;;;;13.00;7.65;;;12.80;57.40;;;;;;4936262;29;20019;-77
2023/04/20 04:40:38;;;;;;;8.85;5.90;;;12.80;57.40;;;;;;4938995;29;20079;-78
2023/04/20 04:43:04;;;;;;;10.45;7.10;;;12.80;57.20;;;;;;4938788;29;20445;-77
2023/04/20 04:45:30;;;;;;;12.05;6.82;;;12.70;57.20;;;;;;4944651;29;20050;-77
2023/04/20 04:47:56;;;;;;;11.18;6.13;;;12.70;56.90;;;;;;4946292;29;20098;-77
2023/04/20 04:50:21;;;;;;;12.40;6.30;;;12.70;56.70;;;;;;4938640;29;20058;-76
2023/04/20 04:52:47;;;;;;;10.05;6.53;;;12.60;56.50;;;;;;4938503;28;20031;-77
2023/04/20 04:55:13;;;;;;;12.52;6.60;;;12.60;56.40;;;;;;4938774;29;20035;-79
2023/04/20 04:57:38;;;;;;;10.05;6.35;;;12.50;56.00;;;;;;4938531;29;20028;-77
2023/04/20 05:00:11;;;;;;;15.20;7.00;;;12.50;55.70;;;;;;4938681;29;20039;-77
2023/04/20 05:02:37;;;;;;;9.18;5.90;;;12.50;55.70;;;;;;4954151;28;20508;-78
2023/04/20 05:05:02;;;;;;;15.98;7.35;;;12.50;55.40;;;;;;4954516;29;20034;-78
2023/04/20 05:07:28;;;;;;;12.65;7.53;;;12.40;55.20;;;;;;4956281;29;20375;-77
2023/04/20 05:09:54;;;;;;;10.25;6.82;;;12.50;54.80;;;;;;4957684;28;20023;-77
2023/04/20 05:12:20;;;;;;;9.95;6.18;;;12.40;54.60;;;;;;4939697;29;20438;-77
2023/04/20 05:14:45;;;;;;;9.32;5.70;;;12.30;54.40;;;;;;4938771;29;20566;-78
2023/04/20 05:17:11;;;;;;;11.05;6.15;;;12.40;54.20;;;;;;4937117;29;20086;-78
2023/04/20 05:19:36;;;;;;;10.52;5.70;;;12.30;54.10;;;;;;4944547;29;20034;-78
2023/04/20 05:22:02;;;;;;;14.40;5.70;;;12.30;53.60;;;;;;4940545;29;20418;-74
2023/04/20 05:24:28;;;;;;;11.32;6.43;;;12.30;53.20;;;;;;4940200;29;20031;-78
2023/04/20 05:26:53;;;;;;;9.13;6.45;;;12.30;53.00;;;;;;4933711;29;20087;-78
2023/04/20 05:29:19;;;;;;;11.20;5.65;;;12.30;52.60;;;;;;4938308;29;20039;-78
2023/04/20 05:31:45;;;;;;;7.60;5.45;;;12.30;52.40;;;;;;4938461;29;20099;-80
2023/04/20 05:34:10;;;;;;;9.32;5.35;;;12.30;52.20;;;;;;4953963;28;20031;-78
2023/04/20 05:36:36;;;;;;;8.00;5.20;;;12.30;51.90;;;;;;4949023;28;20061;-78
2023/04/20 05:39:02;;;;;;;8.40;5.50;;;12.30;51.60;;;;;;4972429;28;20035;-79
2023/04/20 05:41:28;;;;;;;7.53;5.00;;;12.30;51.50;;;;;;4951982;29;20090;-81
2023/04/20 05:43:54;;;;;;;7.15;5.15;;;12.30;51.20;;;;;;4957513;29;20395;-81
2023/04/20 05:46:20;;;;;;;12.88;5.97;;;12.30;51.20;;;;;;4957480;29;20130;-80
2023/04/20 05:48:46;;;;;;;9.15;5.15;;;12.30;51.10;;;;;;4942534;29;20040;-81
2023/04/20 05:51:11;;;;;;;6.03;4.30;;;12.30;50.50;;;;;;4938342;29;20107;-80
2023/04/20 05:53:37;;;;;;;6.88;4.95;;;12.30;50.00;;;;;;4938230;29;20809;-81
2023/04/20 05:56:03;;;;;;;7.13;5.00;;;12.30;50.30;;;;;;4938327;29;20024;-80
2023/04/20 05:58:31;;;;;;;8.68;5.05;;;12.20;50.20;;;;;;4936490;29;20403;-81
2023/04/20 06:00:57;;;;;;;8.93;5.15;;;12.30;50.00;;;;;;4938067;29;20038;-81
2023/04/20 06:03:23;;;;;;;8.73;5.63;;;12.30;49.90;;;;;;4946225;28;20035;-81
2023/04/20 06:05:48;;;;;;;6.25;4.80;;;12.30;50.10;;;;;;4955077;28;20038;-81
2023/04/20 06:08:14;;;;;;;7.85;4.72;;;12.30;49.90;;;;;;4956039;28;20379;-77
2023/04/20 06:10:40;;;;;;;11.00;5.82;;;12.20;49.70;;;;;;4940624;29;20019;-84
2023/04/20 06:13:05;;;;;;;7.18;4.45;;;12.20;49.90;;;;;;4960707;28;20038;-89
2023/04/20 06:15:31;;;;;;;12.43;5.10;;;12.30;49.80;;;;;;4953553;29;20023;-88
2023/04/20 06:17:56;;;;;;;6.50;5.05;;;12.30;49.80;;;;;;4940151;29;20023;-84
2023/04/20 06:20:22;;;;;;;8.77;4.07;;;12.20;49.50;;;;;;4957267;29;20027;-87
2023/04/20 06:22:48;;;;;;;7.00;4.57;;;12.20;49.30;;;;;;4958058;28;20027;-88
2023/04/20 06:25:14;;;;;;;7.40;4.47;;;12.20;49.10;;;;;;4961097;28;20061;-83
2023/04/20 06:27:40;;;;;;;9.25;4.80;;;12.20;49.70;;;;;;4955265;29;20095;-86
2023/04/20 06:30:06;;;;;;;9.35;4.35;;;12.10;49.20;;;;;;4934967;29;20031;-81
2023/04/20 06:32:32;;;;;;;8.18;4.88;;;12.20;49.50;;;;;;4941518;29;20055;-82
2023/04/20 06:34:58;;;;;;;8.98;5.10;;;12.20;49.10;;;;;;4960576;29;20027;-81
2023/04/20 06:37:24;;;;;;;8.52;4.53;;;12.20;49.30;;;;;;4958298;29;20028;-77
2023/04/20 06:39:53;;;;;;;8.93;5.22;;;12.20;48.80;;;;;;4941569;29;20430;-82
2023/04/20 06:42:20;;;;;;;8.75;5.18;;;12.20;48.60;;;;;;4940987;29;20103;-83
2023/04/20 06:44:46;;;;;;;11.02;6.30;;;12.20;48.80;;;;;;4941078;29;20035;-89
2023/04/20 06:47:11;;;;;;;7.43;4.20;;;12.30;48.70;;;;;;4939918;29;20099;-79
2023/04/20 06:49:38;;;;;;;14.00;4.80;;;12.30;48.20;;;;;;4948779;28;20028;-84
2023/04/20 06:52:05;;;;;;;9.30;4.63;;;12.60;48.00;;;;;;4952276;29;20086;-85
2023/04/20 06:54:31;;;;;;;9.18;6.25;;;12.60;47.70;;;;;;4944725;29;20468;-84
2023/04/20 06:56:57;;;;;;;10.00;5.35;;;12.50;47.40;;;;;;4939383;29;20032;-85
2023/04/20 06:59:22;;;;;;;9.18;5.70;;;12.30;47.40;;;;;;4939925;29;20789;-87
2023/04/20 07:01:48;;;;;;;7.30;4.68;;;12.20;47.70;;;;;;4959716;29;20046;-88
2023/04/20 07:04:13;;;;;;;10.75;5.18;;;12.30;47.80;;;;;;4950214;29;20024;-87
2023/04/20 07:06:39;;;;;;;9.07;5.25;;;12.30;47.80;;;;;;4945109;29;20028;-87
2023/04/20 07:09:05;;;;;;;7.57;4.55;;;12.30;47.90;;;;;;4923511;29;20039;-87
2023/04/20 07:11:31;;;;;;;6.38;4.45;;;12.30;47.90;;;;;;4933859;29;20023;-86
2023/04/20 07:13:56;;;;;;;11.75;5.47;;;12.50;47.60;;;;;;4955031;29;20087;-88
2023/04/20 07:16:22;;;;;;;7.35;5.53;;;12.60;47.30;;;;;;4959955;29;20405;-86
2023/04/20 07:18:47;;;;;;;8.48;5.03;;;12.60;47.40;;;;;;4952356;29;20023;-87
2023/04/20 07:21:14;;;;;;;12.02;7.18;;;12.70;47.50;;;;;;4948296;29;20031;-88
2023/04/20 07:23:40;;;;;;;10.50;7.32;;;12.70;47.80;;;;;;4951905;29;20035;-79
2023/04/20 07:26:06;;;;;;;11.63;6.30;;;13.10;47.20;;;;;;4957405;28;20031;-88
2023/04/20 07:28:32;;;;;;;10.23;5.88;;;13.70;45.50;;;;;;4960185;29;20035;-89
2023/04/20 07:30:58;;;;;;;9.38;5.57;;;14.10;44.70;;;;;;4954109;28;20043;-89
2023/04/20 07:33:24;;;;;;;8.65;5.65;;;14.50;44.10;;;;;;4948547;29;20024;-88
2023/04/20 07:35:50;;;;;;;10.07;5.82;;;14.40;43.80;;;;;;4958850;29;20493;-87
2023/04/20 07:38:16;;;;;;;7.55;5.63;;;14.40;44.10;;;;;;4953472;28;20046;-88
2023/04/20 07:40:41;;;;;;;9.60;5.30;;;14.40;43.60;;;;;;4961943;28;20031;-88
2023/04/20 07:43:07;;;;;;;7.72;4.13;;;14.60;43.80;;;;;;4960567;28;20028;-88
2023/04/20 07:45:33;;;;;;;7.00;4.70;;;15.20;43.00;;;;;;4948527;29;20040;-89
2023/04/20 07:48:00;;;;;;;6.32;4.85;;;15.90;41.20;;;;;;4941531;28;20031;-89
2023/04/20 07:50:26;;;;;;;9.27;4.90;;;16.20;40.70;;;;;;4951139;29;20067;-88
2023/04/20 07:52:51;;;;;;;7.47;5.35;;;17.30;39.00;;;;;;4947880;28;20030;-89
2023/04/20 07:55:17;;;;;;;7.82;4.80;;;19.60;35.90;;;;;;4959340;29;20086;-89
2023/04/20 07:57:43;;;;;;;6.95;4.45;;;22.20;31.70;;;;;;4941936;29;20015;-90
2023/04/20 08:00:11;;;;;;;6.55;4.38;;;24.30;29.00;;;;;;4939562;29;20401;-89
2023/04/20 08:02:37;;;;;;;8.02;4.32;;;26.00;27.10;;;;;;4941479;29;20538;-90
2023/04/20 08:05:03;;;;;;;5.85;4.30;;;27.30;25.30;;;;;;4936282;29;20031;-90
2023/04/20 08:07:29;;;;;;;6.68;5.05;;;28.50;24.10;;;;;;4942115;29;20829;-90
2023/04/20 08:09:55;;;;;;;7.55;5.40;;;29.20;22.70;;;;;;4937895;29;20032;-90
2023/04/20 08:12:21;;;;;;;5.30;4.70;;;30.00;22.70;;;;;;4939224;29;20032;-90
2023/04/20 08:14:47;;;;;;;4.65;4.13;;;30.40;21.80;;;;;;4923047;29;20027;-90
2023/04/20 08:17:12;;;;;;;5.78;4.25;;;31.30;20.90;;;;;;4939742;29;20039;-91
2023/04/20 08:19:38;;;;;;;6.68;4.50;;;31.60;20.70;;;;;;4942138;29;20386;-89
2023/04/20 08:22:04;;;;;;;7.43;4.43;;;31.80;20.20;;;;;;4950240;29;20027;-90
2023/04/20 08:24:30;;;;;;;6.93;4.32;;;32.20;20.00;;;;;;4946662;28;20047;-90
2023/04/20 08:26:57;;;;;;;6.78;4.28;;;32.30;19.70;;;;;;4943472;29;20027;-91
2023/04/20 08:29:23;;;;;;;6.95;4.40;;;32.60;19.90;;;;;;4939690;28;20031;-89
2023/04/20 08:31:50;;;;;;;6.75;5.20;;;32.90;19.60;;;;;;4967903;28;20402;-89
2023/04/20 08:34:15;;;;;;;9.82;5.50;;;33.30;19.50;;;;;;4965864;28;20120;-89
2023/04/20 08:36:42;;;;;;;6.20;5.10;;;33.60;19.10;;;;;;4964233;28;20499;-90
2023/04/20 08:39:13;;;;;;;5.20;4.50;;;33.60;18.60;;;;;;4942543;29;20114;-90
2023/04/20 08:41:39;;;;;;;6.43;5.03;;;33.70;18.80;;;;;;4942356;28;20031;-90
2023/04/20 08:44:06;;;;;;;6.13;4.78;;;33.80;18.80;;;;;;4937423;29;20036;-90
2023/04/20 08:46:33;;;;;;;4.85;4.35;;;33.80;18.90;;;;;;4934380;29;20019;-82
2023/04/20 08:49:01;;;;;;;5.55;4.50;;;33.50;18.70;;;;;;4950075;29;20122;-83
2023/04/20 08:51:27;;;;;;;8.60;4.47;;;33.00;19.40;;;;;;4942139;29;20426;-82
2023/04/20 08:53:55;;;;;;;7.30;4.65;;;32.90;19.50;;;;;;4938641;29;20039;-82
2023/04/20 08:56:36;;;;;;;6.03;5.03;;;32.80;19.40;;;;;;4938276;29;20016;-83
2023/04/20 08:59:04;;;;;;;5.68;4.05;;;32.80;19.50;;;;;;4938735;29;20036;-82
2023/04/20 09:01:30;;;;;;;6.10;4.72;;;32.80;20.70;;;;;;4944341;28;20034;-82
2023/04/20 09:03:56;;;;;;;5.88;4.57;;;32.90;20.40;;;;;;4948547;28;20190;-82
2023/04/20 09:06:21;;;;;;;7.20;4.78;;;33.10;20.00;;;;;;4948178;28;20031;-83
2023/04/20 09:08:47;;;;;;;7.30;4.00;;;33.20;19.90;;;;;;4959235;28;20039;-81
2023/04/20 09:11:23;;;;;;;7.03;4.60;;;33.40;19.50;;;;;;4958987;28;20031;-82
2023/04/20 09:14:04;;;;;;;5.15;4.47;;;32.70;19.00;;;;;;4952614;28;20028;-82
2023/04/20 09:16:30;;;;;;;7.85;4.72;;;32.60;19.80;;;;;;4936420;29;20026;-82
2023/04/20 09:18:56;;;;;;;7.93;4.70;;;32.80;19.60;;;;;;4917991;29;20039;-81
2023/04/20 09:21:23;;;;;;;6.45;4.63;;;32.80;20.70;;;;;;4953141;28;20028;-82
2023/04/20 09:24:15;;;;;;;5.95;4.30;;;33.10;20.10;;;;;;4943708;28;20035;-82
2023/04/20 09:26:41;;;;;;;7.72;4.53;;;33.30;20.30;;;;;;4950083;28;20054;-82
2023/04/20 09:29:17;;;;;;;6.72;4.72;;;33.50;19.70;;;;;;4953879;28;20043;-82
2023/04/20 09:31:42;;;;;;;6.47;4.65;;;33.60;19.60;;;;;;4952986;28;20457;-83
2023/04/20 09:34:08;;;;;;;7.88;4.55;;;33.10;20.40;;;;;;4959755;28;20054;-83
2023/04/20 09:36:41;;;;;;;6.40;4.63;;;33.20;20.10;;;;;;4939912;29;20114;-83
2023/04/20 09:39:18;;;;;;;7.95;4.47;;;33.40;20.30;;;;;;4971626;28;20528;-82
2023/04/20 09:41:44;;;;;;;5.78;4.32;;;33.50;19.60;;;;;;4944692;28;20582;-87
2023/04/20 09:44:11;;;;;;;6.47;4.50;;;33.30;20.50;;;;;;4956149;28;20042;-82
2023/04/20 09:46:39;;;;;;;6.97;4.85;;;33.50;20.10;;;;;;4952009;28;20038;-83
2023/04/20 09:49:07;;;;;;;5.43;4.57;;;32.50;18.70;;;;;;4951173;28;20038;-87
2023/04/20 09:51:37;;;;;;;5.57;4.60;;;31.10;19.80;;;;;;4958104;28;20576;-83
2023/04/20 09:54:05;;;;;;;6.38;4.32;;;31.30;22.40;;;;;;4940256;29;20393;-81
2023/04/20 09:56:32;;;;;;;7.25;4.15;;;31.60;21.70;;;;;;4957446;28;20051;-83
2023/04/20 09:58:59;;;;;;;5.85;4.45;;;31.90;22.10;;;;;;4954925;28;20118;-83
2023/04/20 10:01:26;;;;;;;6.10;4.80;;;31.80;21.70;;;;;;4944153;28;20039;-83
2023/04/20 10:03:52;;;;;;;5.35;4.45;;;31.90;21.40;;;;;;4942977;29;20023;-83
2023/04/20 10:06:27;;;;;;;6.32;4.43;;;31.80;21.90;;;;;;4940551;29;20490;-83
2023/04/20 10:08:53;;;;;;;8.43;4.45;;;31.60;20.90;;;;;;4940978;29;20028;-83
2023/04/20 10:11:32;;;;;;;6.40;4.47;;;30.90;21.80;;;;;;4951657;29;20055;-83
2023/04/20 10:14:00;;;;;;;7.45;5.18;;;30.80;23.00;;;;;;4940326;29;20028;-83
2023/04/20 10:16:26;;;;;;;8.48;5.00;;;29.60;22.20;;;;;;4943890;29;20031;-81
2023/04/20 10:19:02;;;;;;;8.85;4.80;;;28.90;22.70;;;;;;4940762;28;20027;-82
2023/04/20 10:21:31;;;;;;;6.45;4.28;;;28.30;23.40;;;;;;4941788;29;20039;-81
2023/04/20 10:23:59;;;;;;;6.53;4.32;;;28.10;25.10;;;;;;4943796;28;20031;-81
2023/04/20 10:26:36;;;;;;;6.55;4.53;;;27.80;25.90;;;;;;4957375;29;20421;-82
2023/04/20 10:29:01;;;;;;;7.18;4.68;;;26.90;26.30;;;;;;4940311;29;20056;-83
2023/04/20 10:31:36;;;;;;;6.75;4.45;;;25.50;26.30;;;;;;4941409;29;20506;-82
2023/04/20 10:34:01;;;;;;;8.02;4.88;;;24.20;28.90;;;;;;4954497;29;20019;-78
2023/04/20 10:36:35;;;;;;;7.60;4.32;;;23.80;29.30;;;;;;4945675;29;20439;-82
2023/04/20 10:39:21;;;;;;;6.43;4.20;;;23.60;29.80;;;;;;4941629;29;20091;-79
2023/04/20 10:42:00;;;;;;;6.60;4.75;;;23.20;30.20;;;;;;4939890;29;20043;-83
2023/04/20 10:44:25;;;;;;;9.75;4.70;;;22.80;30.90;;;;;;4941630;29;20119;-80
2023/04/20 10:46:51;;;;;;;11.00;5.28;;;22.70;31.10;;;;;;4941264;29;20067;-78
2023/04/20 10:49:17;;;;;;;7.38;4.45;;;22.60;31.70;;;;;;4942893;28;20044;-78
2023/04/20 10:51:51;;;;;;;8.25;4.40;;;22.40;31.70;;;;;;4967324;28;20386;-79
2023/04/20 10:54:17;;;;;;;7.68;4.05;;;22.10;30.60;;;;;;4979782;28;20053;-79
2023/04/20 10:56:43;;;;;;;5.97;4.05;;;21.40;31.70;;;;;;4946859;28;20036;-79
2023/04/20 10:59:11;;;;;;;7.47;3.95;;;21.10;32.50;;;;;;4939637;29;20099;-79
2023/04/20 11:01:38;;;;;;;7.00;3.30;;;21.30;32.20;;;;;;4941084;29;20110;-78
2023/04/20 11:04:04;;;;;;;5.60;3.20;;;21.30;33.20;;;;;;4943102;29;20030;-80
2023/04/20 11:06:30;;;;;;;6.07;3.60;;;21.50;33.60;;;;;;4944822;29;20035;-81
2023/04/20 11:08:56;;;;;;;7.07;4.30;;;21.60;33.00;;;;;;4940444;29;20038;-81
2023/04/20 11:11:26;;;;;;;7.00;3.92;;;21.40;32.20;;;;;;4931197;29;20028;-80
2023/04/20 11:14:04;;;;;;;9.02;4.38;;;21.30;32.90;;;;;;4938889;29;20032;-80
2023/04/20 11:16:30;;;;;;;7.63;4.00;;;21.50;33.40;;;;;;4939751;29;20031;-80
2023/04/20 11:18:57;;;;;;;8.70;4.68;;;21.50;32.90;;;;;;4940664;29;20039;-78
2023/04/20 11:21:22;;;;;;;6.95;3.95;;;21.50;32.10;;;;;;4940651;29;20035;-76
2023/04/20 11:23:49;;;;;;;6.90;3.90;;;21.30;32.90;;;;;;4939692;29;20032;-75
2023/04/20 11:26:15;;;;;;;6.35;4.53;;;21.50;32.90;;;;;;4940820;29;20032;-75
2023/04/20 11:28:51;;;;;;;7.63;3.72;;;21.60;32.60;;;;;;4942044;29;20039;-75
2023/04/20 11:31:17;;;;;;;7.07;3.75;;;21.60;32.00;;;;;;4940579;29;20533;-75
2023/04/20 11:33:43;;;;;;;4.43;3.75;;;21.70;33.70;;;;;;4951059;29;20106;-75
2023/04/20 11:36:18;;;;;;;6.40;3.20;;;21.60;32.50;;;;;;4941490;29;20122;-76
2023/04/20 11:38:43;;;;;;;5.28;3.50;;;21.50;32.90;;;;;;4940182;29;20031;-77
2023/04/20 11:41:09;;;;;;;5.88;3.30;;;21.60;32.90;;;;;;4940415;29;20039;-75
2023/04/20 11:43:35;;;;;;;4.90;3.17;;;21.60;32.70;;;;;;4940343;29;20039;-75
2023/04/20 11:46:01;;;;;;;3.95;2.88;;;21.30;32.20;;;;;;4940292;29;20036;-75
2023/04/20 11:48:30;;;;;;;6.00;3.53;;;21.20;32.80;;;;;;4939867;29;20447;-75
2023/04/20 11:50:56;;;;;;;5.38;3.20;;;21.20;31.70;;;;;;4941734;29;20368;-76
2023/04/20 11:53:22;;;;;;;5.03;2.75;;;21.10;31.30;;;;;;4941849;29;20019;-75
2023/04/20 11:55:48;;;;;;;7.57;3.50;;;21.10;31.50;;;;;;4949903;29;20095;-76
2023/04/20 11:58:13;;;;;;;4.03;2.60;;;21.10;31.80;;;;;;4939929;29;20027;-77
2023/04/20 12:00:39;;;;;;;6.05;2.65;;;21.10;31.50;;;;;;4938621;29;20039;-77
2023/04/20 12:03:05;;;;;;;5.70;2.90;;;21.20;31.50;;;;;;4939712;29;20043;-78
2023/04/20 12:05:30;;;;;;;4.60;3.10;;;21.10;31.70;;;;;;4927698;29;20123;-76
2023/04/20 12:07:56;;;;;;;7.10;2.97;;;21.20;30.40;;;;;;4939941;29;20090;-78
2023/04/20 12:10:22;;;;;;;3.90;2.70;;;21.20;31.30;;;;;;4925082;29;20458;-76
2023/04/20 12:12:48;;;;;;;4.20;2.70;;;21.20;31.70;;;;;;4923124;29;20035;-76
2023/04/20 12:15:13;;;;;;;6.75;3.03;;;21.30;31.40;;;;;;4922593;29;20051;-76
2023/04/20 12:17:39;;;;;;;4.72;3.05;;;21.30;30.80;;;;;;4939464;29;20023;-77
2023/04/20 12:20:10;;;;;;;6.35;3.17;;;21.10;30.60;;;;;;4938860;29;20039;-76
2023/04/20 12:22:36;;;;;;;3.95;2.72;;;20.90;31.80;;;;;;4942542;29;20042;-76
2023/04/20 12:25:03;;;;;;;4.80;2.78;;;20.50;31.60;;;;;;4939269;29;20035;-76
2023/04/20 12:27:28;;;;;;;5.45;2.92;;;20.70;31.10;;;;;;4938576;29;20020;-77
2023/04/20 12:29:54;;;;;;;4.45;2.65;;;20.80;30.00;;;;;;4939277;29;20039;-76
2023/04/20 12:32:20;;;;;;;4.18;2.70;;;20.80;29.70;;;;;;4939184;29;20594;-76
2023/04/20 12:34:45;;;;;;;4.70;3.17;;;20.80;30.90;;;;;;4957918;29;20078;-77
2023/04/20 12:37:11;;;;;;;5.15;2.40;;;20.80;29.70;;;;;;4951838;29;20114;-76
2023/04/20 12:39:36;;;;;;;5.00;2.40;;;20.90;30.40;;;;;;4938006;29;20900;-76
2023/04/20 12:42:02;;;;;;;5.13;2.90;;;20.90;30.80;;;;;;4939217;29;20079;-77
2023/04/20 12:44:28;;;;;;;5.95;2.60;;;20.80;31.10;;;;;;4937069;29;20115;-76
2023/04/20 12:46:54;;;;;;;5.57;3.30;;;20.90;31.10;;;;;;4939094;29;20083;-77
2023/04/20 12:49:20;;;;;;;7.07;3.70;;;20.90;29.90;;;;;;4946956;28;20035;-77
2023/04/20 12:51:45;;;;;;;4.80;2.70;;;21.00;30.20;;;;;;4958330;29;20027;-76
2023/04/20 12:54:11;;;;;;;3.97;2.55;;;20.80;28.70;;;;;;4958334;29;20027;-77
2023/04/20 12:56:36;;;;;;;3.42;2.25;;;20.70;30.50;;;;;;4958286;29;20050;-77
2023/04/20 12:59:02;;;;;;;4.63;2.55;;;20.80;31.30;;;;;;4938969;29;20042;-81
2023/04/20 13:01:28;;;;;;;4.22;2.58;;;20.80;30.60;;;;;;4956811;29;20576;-78
2023/04/20 13:03:54;;;;;;;6.28;2.65;;;21.00;31.50;;;;;;4951448;29;20032;-77
2023/04/20 13:06:23;;;;;;;7.70;3.00;;;21.00;30.50;;;;;;4953799;29;20032;-82
2023/04/20 13:08:49;;;;;;;4.68;2.60;;;20.90;29.10;;;;;;4937406;29;20035;-80
2023/04/20 13:11:16;;;;;;;3.30;2.28;;;20.80;28.90;;;;;;4948387;29;20027;-80
2023/04/20 13:13:42;;;;;;;4.07;2.55;;;20.80;28.70;;;;;;4957993;29;20027;-78
2023/04/20 13:16:08;;;;;;;3.35;2.28;;;20.80;28.40;;;;;;4948682;28;20039;-78
2023/04/20 13:18:34;;;;;;;3.65;2.40;;;20.80;28.60;;;;;;4938646;29;20066;-78
2023/04/20 13:20:59;;;;;;;4.60;2.88;;;20.80;27.90;;;;;;4941069;29;20054;-78
2023/04/20 13:23:25;;;;;;;3.80;2.33;;;20.80;28.20;;;;;;4936386;29;20491;-78
2023/04/20 13:25:51;;;;;;;6.38;2.65;;;20.80;28.40;;;;;;4938304;29;20039;-78
2023/04/20 13:28:17;;;;;;;4.60;2.85;;;20.50;28.70;;;;;;4922899;29;20024;-78
2023/04/20 13:30:43;;;;;;;6.80;2.47;;;20.70;29.00;;;;;;4938257;29;20430;-78
2023/04/20 13:33:09;;;;;;;3.60;2.47;;;20.80;28.60;;;;;;4948453;28;20102;-78
2023/04/20 13:35:35;;;;;;;4.40;2.67;;;20.80;28.30;;;;;;4957644;29;20126;-78
2023/04/20 13:38:02;;;;;;;5.22;2.53;;;20.70;28.80;;;;;;4942097;29;20027;-78
2023/04/20 13:40:28;;;;;;;5.03;2.55;;;20.70;28.60;;;;;;4921225;29;20046;-78
2023/04/20 13:42:54;;;;;;;3.92;3.13;;;20.60;29.20;;;;;;4938543;29;20104;-78
2023/04/20 13:45:19;;;;;;;4.32;2.33;;;20.30;28.30;;;;;;4938167;29;20043;-78
2023/04/20 13:47:45;;;;;;;6.10;2.67;;;20.30;28.30;;;;;;4938373;29;20103;-78
2023/04/20 13:50:11;;;;;;;3.75;2.20;;;20.00;27.30;;;;;;4949094;29;20040;-78
2023/04/20 13:52:37;;;;;;;3.72;2.60;;;20.10;29.80;;;;;;4938482;29;20027;-78
2023/04/20 13:55:03;;;;;;;4.07;2.45;;;20.30;29.60;;;;;;4938574;29;20034;-78
2023/04/20 13:57:30;;;;;;;4.57;2.60;;;20.30;28.90;;;;;;4938081;29;20062;-78
2023/04/20 13:59:57;;;;;;;4.50;2.88;;;20.20;29.60;;;;;;4938234;29;20114;-78
2023/04/20 14:02:23;;;;;;;5.68;3.40;;;19.90;30.10;;;;;;4938280;29;20110;-78
2023/04/20 14:04:49;;;;;;;6.68;3.25;;;19.50;30.10;;;;;;4946857;29;21111;-78
2023/04/20 14:07:15;;;;;;;4.93;3.22;;;19.80;30.20;;;;;;4938254;29;20055;-78
2023/04/20 14:09:43;;;;;;;4.47;2.97;;;20.00;29.80;;;;;;4937015;29;20039;-78
2023/04/20 14:12:09;;;;;;;7.65;3.38;;;20.20;30.20;;;;;;4943071;29;20024;-78
2023/04/20 14:14:35;;;;;;;4.40;2.67;;;20.20;30.00;;;;;;4937115;29;20503;-78
2023/04/20 14:17:01;;;;;;;4.20;2.92;;;20.30;30.20;;;;;;4938066;29;20129;-78
2023/04/20 14:19:26;;;;;;;5.60;3.20;;;20.30;30.00;;;;;;4937862;29;20575;-78
2023/04/20 14:21:52;;;;;;;4.53;3.17;;;20.40;30.10;;;;;;4938180;29;20527;-78
2023/04/20 14:24:18;;;;;;;4.75;3.10;;;20.40;30.60;;;;;;4921190;29;20059;-78
2023/04/20 14:26:43;;;;;;;4.65;2.60;;;20.60;31.10;;;;;;4937977;29;20059;-78
2023/04/20 14:29:09;;;;;;;4.75;3.00;;;20.40;31.00;;;;;;4950871;28;20035;-78
2023/04/20 14:31:35;;;;;;;4.68;3.20;;;20.50;30.80;;;;;;4939605;29;20051;-78
2023/04/20 14:34:01;;;;;;;5.78;3.10;;;20.50;30.00;;;;;;4939583;29;20107;-78
2023/04/20 14:36:27;;;;;;;5.22;3.47;;;20.40;30.30;;;;;;4945084;29;20054;-78
2023/04/20 14:38:54;;;;;;;4.35;2.72;;;20.30;29.50;;;;;;4920762;29;20065;-78
2023/04/20 14:41:20;;;;;;;7.20;3.45;;;20.10;30.00;;;;;;4937505;29;20024;-78
2023/04/20 14:43:46;;;;;;;3.78;2.28;;;20.10;30.60;;;;;;4954789;28;20151;-78
2023/04/20 14:46:11;;;;;;;4.25;2.92;;;20.10;31.00;;;;;;4960590;29;20050;-77
2023/04/20 14:48:37;;;;;;;5.32;3.35;;;20.20;31.10;;;;;;4960468;29;20031;-78
2023/04/20 14:51:06;;;;;;;5.80;3.60;;;20.30;31.10;;;;;;4939732;29;20031;-77
2023/04/20 14:53:32;;;;;;;6.93;3.78;;;20.30;30.80;;;;;;4940114;29;20028;-78
2023/04/20 14:55:57;;;;;;;8.18;3.65;;;20.30;31.10;;;;;;4941144;28;20028;-78
2023/04/20 14:58:23;;;;;;;7.45;3.47;;;20.20;31.20;;;;;;4939806;29;20403;-77
2023/04/20 15:00:50;;;;;;;3.97;3.33;;;20.10;31.50;;;;;;4956260;29;20086;-78
2023/04/20 15:03:17;;;;;;;5.07;3.15;;;20.10;30.70;;;;;;4958567;29;20153;-77
2023/04/20 15:05:42;;;;;;;5.85;3.30;;;20.10;30.80;;;;;;4939639;29;20051;-77
2023/04/20 15:08:09;;;;;;;7.90;3.45;;;20.10;30.90;;;;;;4941150;29;20040;-78
2023/04/20 15:10:35;;;;;;;6.43;3.80;;;20.20;31.00;;;;;;4944915;29;20015;-78
2023/04/20 15:13:00;;;;;;;5.28;3.97;;;20.20;31.60;;;;;;4939235;29;20034;-78
2023/04/20 15:15:26;;;;;;;4.68;3.47;;;20.20;31.70;;;;;;4941086;29;20030;-78
2023/04/20 15:17:52;;;;;;;6.80;4.22;;;20.20;30.80;;;;;;4940605;29;20032;-78
2023/04/20 15:20:18;;;;;;;5.68;3.05;;;19.60;31.00;;;;;;4940738;29;20035;-78
2023/04/20 15:22:44;;;;;;;7.22;3.97;;;19.50;32.30;;;;;;4940810;29;20039;-77
2023/04/20 15:25:10;;;;;;;5.07;3.67;;;19.40;32.60;;;;;;4940641;29;20032;-77
2023/04/20 15:27:36;;;;;;;5.60;3.85;;;19.30;32.20;;;;;;4942472;29;20042;-78
2023/04/20 15:30:02;;;;;;;5.90;3.85;;;19.40;33.30;;;;;;4942772;29;20031;-78
2023/04/20 15:32:34;;;;;;;5.45;3.67;;;19.40;32.30;;;;;;4942841;29;20047;-78
2023/04/20 15:35:00;;;;;;;5.00;3.60;;;19.40;33.30;;;;;;4962437;28;20486;-78
2023/04/20 15:37:27;;;;;;;6.43;4.40;;;19.50;32.70;;;;;;4943509;29;20100;-78
2023/04/20 15:39:54;;;;;;;6.07;4.45;;;19.60;32.40;;;;;;4940703;29;20024;-77
2023/04/20 15:42:20;;;;;;;6.03;3.92;;;19.80;33.30;;;;;;4940145;29;20039;-78
2023/04/20 15:44:46;;;;;;;7.95;4.43;;;19.80;33.80;;;;;;4940483;29;20028;-78
2023/04/20 15:47:11;;;;;;;6.97;4.13;;;19.90;33.20;;;;;;4938818;29;20028;-78
2023/04/20 15:49:39;;;;;;;7.55;4.30;;;19.80;33.40;;;;;;4942938;28;20679;-77
2023/04/20 15:52:06;;;;;;;5.35;3.97;;;19.80;33.40;;;;;;4942093;29;20177;-77
2023/04/20 15:54:33;;;;;;;6.35;5.07;;;19.70;33.10;;;;;;4941369;29;20142;-77
2023/04/20 15:56:58;;;;;;;8.35;4.80;;;19.70;33.50;;;;;;4946556;29;20032;-77
2023/04/20 15:59:24;;;;;;;7.82;4.60;;;19.70;33.40;;;;;;4940174;29;20107;-78
2023/04/20 16:01:50;;;;;;;9.43;4.93;;;19.70;34.20;;;;;;4939287;29;20121;-81
2023/04/20 16:04:15;;;;;;;6.85;4.78;;;19.60;34.30;;;;;;4946980;28;20035;-80
2023/04/20 16:06:41;;;;;;;8.30;4.47;;;19.50;34.30;;;;;;4976662;28;20057;-85
2023/04/20 16:09:06;;;;;;;7.28;3.90;;;19.60;34.30;;;;;;4977481;28;20516;-87
2023/04/20 16:11:33;;;;;;;7.05;4.50;;;19.60;34.20;;;;;;4943689;29;20038;-78
2023/04/20 16:13:59;;;;;;;7.93;4.53;;;19.70;34.20;;;;;;4948608;28;20106;-86
2023/04/20 16:16:25;;;;;;;6.68;3.80;;;19.70;34.20;;;;;;4951108;28;20129;-89
2023/04/20 16:18:51;;;;;;;7.38;4.60;;;19.70;34.40;;;;;;4955826;28;20028;-85
2023/04/20 16:21:17;;;;;;;8.73;5.30;;;19.60;34.60;;;;;;4931410;28;20039;-88
2023/04/20 16:23:43;;;;;;;5.57;3.85;;;19.50;34.80;;;;;;4952865;28;20066;-82
2023/04/20 16:26:09;;;;;;;7.43;4.70;;;19.40;34.50;;;;;;4952661;29;20078;-82
2023/04/20 16:28:34;;;;;;;8.38;4.07;;;19.40;34.60;;;;;;4957558;29;20033;-86
2023/04/20 16:31:00;;;;;;;7.95;3.97;;;19.30;34.80;;;;;;4936684;29;20052;-85
2023/04/20 16:33:26;;;;;;;7.07;4.28;;;19.20;34.80;;;;;;4941685;29;20090;-76
2023/04/20 16:36:00;;;;;;;8.23;4.00;;;19.30;35.00;;;;;;4941186;29;20027;-86
2023/04/20 16:38:26;;;;;;;6.57;3.80;;;19.30;34.80;;;;;;4956478;28;20030;-85
2023/04/20 16:40:51;;;;;;;6.68;4.22;;;19.30;34.80;;;;;;4952480;28;20031;-82
2023/04/20 16:43:17;;;;;;;5.03;3.90;;;19.30;33.90;;;;;;4932815;28;20036;-83
2023/04/20 16:45:43;;;;;;;7.93;3.83;;;19.30;34.30;;;;;;4931370;29;20091;-80
2023/04/20 16:48:08;;;;;;;4.45;3.65;;;19.30;34.50;;;;;;4953384;28;20035;-86
2023/04/20 16:50:35;;;;;;;10.65;4.53;;;19.30;34.50;;;;;;4933000;29;20032;-84
2023/04/20 16:53:02;;;;;;;6.88;3.90;;;19.10;34.70;;;;;;4952855;29;20030;-89
2023/04/20 16:55:28;;;;;;;6.80;3.90;;;19.10;34.70;;;;;;4960058;29;20031;-82
2023/04/20 16:57:59;;;;;;;8.65;3.95;;;19.00;34.70;;;;;;4952448;29;20034;-80
2023/04/20 17:00:29;;;;;;;7.13;3.70;;;18.80;35.00;;;;;;4939514;29;20027;-81
2023/04/20 17:02:55;;;;;;;5.50;3.90;;;18.70;35.80;;;;;;4940343;29;20031;-79
2023/04/20 17:05:21;;;;;;;7.82;4.28;;;18.70;36.10;;;;;;4935063;29;20529;-81
2023/04/20 17:07:47;;;;;;;10.02;4.55;;;18.70;36.10;;;;;;4954679;28;20035;-79
2023/04/20 17:10:13;;;;;;;6.38;3.40;;;18.60;36.20;;;;;;4954699;28;20644;-78
2023/04/20 17:12:38;;;;;;;8.95;3.72;;;18.70;36.20;;;;;;4962313;28;20800;-78